createdAt,value
2022-11-17T00:02:23.941Z,7.65
2022-11-17T00:04:50.916Z,7.20
2022-11-17T00:07:17.975Z,8.13
2022-11-17T00:09:44.906Z,6.90
2022-11-17T00:12:11.848Z,7.15
2022-11-17T00:14:38.796Z,7.93
2022-11-17T00:17:05.878Z,7.18
2022-11-17T00:19:32.787Z,8.40
2022-11-17T00:21:59.700Z,6.55
2022-11-17T00:24:26.587Z,9.35
2022-11-17T00:26:53.511Z,7.85
2022-11-17T00:29:20.434Z,8.05
2022-11-17T00:31:47.358Z,7.18
2022-11-17T00:34:14.280Z,8.48
2022-11-17T00:36:41.221Z,7.93
2022-11-17T00:39:08.142Z,9.45
2022-11-17T00:41:35.059Z,7.78
2022-11-17T00:44:01.998Z,7.10
2022-11-17T00:46:28.901Z,9.85
2022-11-17T00:48:55.812Z,8.98
2022-11-17T00:51:22.717Z,8.95
2022-11-17T00:53:49.670Z,9.35
2022-11-17T00:56:16.576Z,9.95
2022-11-17T00:58:43.469Z,8.85
2022-11-17T01:01:12.105Z,11.05
2022-11-17T01:03:39.042Z,8.45
2022-11-17T01:06:05.976Z,9.23
2022-11-17T01:08:32.859Z,9.77
2022-11-17T01:10:59.747Z,9.35
2022-11-17T01:13:26.644Z,9.30
2022-11-17T01:15:53.591Z,10.15
2022-11-17T01:18:20.498Z,11.88
2022-11-17T01:20:47.545Z,10.30
2022-11-17T01:23:14.447Z,9.40
2022-11-17T01:25:41.330Z,11.80
2022-11-17T01:28:08.238Z,10.00
2022-11-17T01:30:35.107Z,9.30
2022-11-17T01:33:02.023Z,8.93
2022-11-17T01:35:28.946Z,11.13
2022-11-17T01:37:55.868Z,8.38
2022-11-17T01:40:22.768Z,9.60
2022-11-17T01:42:49.861Z,9.50
2022-11-17T01:45:16.765Z,10.48
2022-11-17T01:47:43.683Z,9.73
2022-11-17T01:50:10.587Z,11.05
2022-11-17T01:52:37.507Z,10.05
2022-11-17T01:55:04.424Z,8.90
2022-11-17T01:57:31.336Z,8.77
2022-11-17T01:59:58.277Z,11.77
2022-11-17T02:02:25.187Z,9.68
2022-11-17T02:04:52.081Z,10.43
2022-11-17T02:07:19.029Z,17.48
2022-11-17T02:09:45.973Z,10.65
2022-11-17T02:12:12.899Z,10.20
2022-11-17T02:14:39.816Z,9.65
2022-11-17T02:17:11.717Z,10.23
2022-11-17T02:19:40.811Z,9.70
2022-11-17T02:22:07.757Z,9.90
2022-11-17T02:24:34.651Z,10.73
2022-11-17T02:27:01.594Z,10.20
2022-11-17T02:29:28.504Z,12.38
2022-11-17T02:31:55.418Z,10.48
2022-11-17T02:34:22.306Z,9.68
2022-11-17T02:36:49.201Z,11.38
2022-11-17T02:39:16.116Z,11.10
2022-11-17T02:41:43.016Z,9.95
2022-11-17T02:44:09.952Z,9.80
2022-11-17T02:46:36.892Z,11.02
2022-11-17T02:49:03.845Z,11.35
2022-11-17T02:51:30.753Z,11.50
2022-11-17T02:53:57.665Z,10.82
2022-11-17T02:56:24.611Z,10.60
2022-11-17T02:58:51.526Z,10.05
2022-11-17T03:01:18.466Z,10.13
2022-11-17T03:03:45.428Z,10.63
2022-11-17T03:06:12.355Z,10.30
2022-11-17T03:08:39.269Z,11.48
2022-11-17T03:11:06.231Z,10.73
2022-11-17T03:13:33.437Z,12.50
2022-11-17T03:16:00.600Z,11.00
2022-11-17T03:18:27.623Z,9.38
2022-11-17T03:20:54.591Z,9.40
2022-11-17T03:23:21.521Z,9.93
2022-11-17T03:25:48.534Z,9.50
2022-11-17T03:28:15.515Z,10.23
2022-11-17T03:30:42.461Z,9.80
2022-11-17T03:33:09.389Z,11.02
2022-11-17T03:35:36.352Z,9.98
2022-11-17T03:38:03.294Z,12.35
2022-11-17T03:40:30.206Z,8.73
2022-11-17T03:42:57.154Z,9.95
2022-11-17T03:45:24.083Z,10.35
2022-11-17T03:47:51.063Z,8.80
2022-11-17T03:50:17.989Z,9.57
2022-11-17T03:52:44.910Z,9.57
2022-11-17T03:55:11.822Z,8.75
2022-11-17T03:57:38.746Z,9.80
2022-11-17T04:00:05.644Z,9.20
2022-11-17T04:02:32.586Z,10.27
2022-11-17T04:04:59.466Z,9.43
2022-11-17T04:07:26.589Z,9.68
2022-11-17T04:09:53.519Z,10.48
2022-11-17T04:12:20.450Z,10.85
2022-11-17T04:14:47.334Z,9.55
2022-11-17T04:17:14.455Z,9.90
2022-11-17T04:19:41.348Z,10.25
2022-11-17T04:22:08.335Z,10.18
2022-11-17T04:24:35.241Z,10.45
2022-11-17T04:27:02.157Z,12.10
2022-11-17T04:29:29.078Z,10.57
2022-11-17T04:31:55.985Z,10.73
2022-11-17T04:34:22.928Z,11.13
2022-11-17T04:36:49.829Z,11.82
2022-11-17T04:39:16.760Z,10.00
2022-11-17T04:41:43.769Z,9.50
2022-11-17T04:44:10.675Z,12.07
2022-11-17T04:46:37.592Z,9.70
2022-11-17T04:49:04.480Z,10.40
2022-11-17T04:51:31.371Z,11.45
2022-11-17T04:53:58.402Z,10.07
2022-11-17T04:56:25.319Z,10.48
2022-11-17T04:58:52.269Z,10.85
2022-11-17T05:01:19.165Z,10.93
2022-11-17T05:03:46.134Z,10.10
2022-11-17T05:06:13.027Z,11.73
2022-11-17T05:08:39.938Z,10.68
2022-11-17T05:11:06.935Z,11.30
2022-11-17T05:13:34.273Z,11.23
2022-11-17T05:16:01.346Z,12.13
2022-11-17T05:18:28.252Z,12.63
2022-11-17T05:20:56.152Z,10.55
2022-11-17T05:23:23.086Z,10.68
2022-11-17T05:25:49.958Z,10.93
2022-11-17T05:28:16.873Z,10.52
2022-11-17T05:30:43.817Z,11.25
2022-11-17T05:33:10.773Z,11.50
2022-11-17T05:35:37.705Z,12.35
2022-11-17T05:38:04.615Z,12.82
2022-11-17T05:40:31.565Z,10.48
2022-11-17T05:42:58.503Z,10.45
2022-11-17T05:45:25.590Z,10.82
2022-11-17T05:47:52.529Z,10.77
2022-11-17T05:50:19.484Z,10.70
2022-11-17T05:52:46.432Z,11.48
2022-11-17T05:55:13.364Z,11.02
2022-11-17T05:57:40.316Z,9.88
2022-11-17T06:00:07.321Z,10.98
2022-11-17T06:02:34.225Z,10.25
2022-11-17T06:05:01.146Z,10.65
2022-11-17T06:07:28.156Z,11.48
2022-11-17T06:09:55.187Z,10.77
2022-11-17T06:12:22.107Z,10.73
2022-11-17T06:14:49.061Z,10.27
2022-11-17T06:17:21.626Z,11.50
2022-11-17T06:19:49.348Z,10.07
2022-11-17T06:22:16.337Z,9.75
2022-11-17T06:24:43.284Z,11.48
2022-11-17T06:27:10.255Z,9.88
2022-11-17T06:29:42.428Z,10.30
2022-11-17T06:32:11.108Z,12.40
2022-11-17T06:34:38.396Z,10.85
2022-11-17T06:37:05.353Z,10.68
2022-11-17T06:39:32.324Z,10.95
2022-11-17T06:41:59.261Z,11.88
2022-11-17T06:44:26.162Z,10.85
2022-11-17T06:46:53.085Z,10.80
2022-11-17T06:49:19.991Z,10.38
2022-11-17T06:51:46.917Z,10.15
2022-11-17T06:54:13.856Z,11.63
2022-11-17T06:56:40.770Z,11.35
2022-11-17T06:59:07.675Z,11.73
2022-11-17T07:01:34.603Z,10.52
2022-11-17T07:04:01.532Z,13.60
2022-11-17T07:06:28.473Z,10.48
2022-11-17T07:08:55.400Z,10.10
2022-11-17T07:11:22.344Z,11.38
2022-11-17T07:13:49.348Z,11.52
2022-11-17T07:16:21.734Z,12.23
2022-11-17T07:35:44.179Z,12.73
2022-11-17T07:43:49.022Z,11.55
2022-11-17T07:46:15.932Z,12.02
2022-11-17T07:48:42.851Z,12.35
2022-11-17T07:51:09.747Z,10.75
2022-11-17T07:53:37.963Z,11.25
2022-11-17T07:56:04.872Z,11.95
2022-11-17T07:58:31.786Z,12.27
2022-11-17T08:00:58.741Z,11.63
2022-11-17T08:03:25.759Z,10.80
2022-11-17T08:05:52.731Z,10.48
2022-11-17T08:08:19.657Z,11.20
2022-11-17T08:10:46.585Z,12.80
2022-11-17T08:13:13.521Z,10.52
2022-11-17T08:15:40.488Z,11.63
2022-11-17T08:18:07.395Z,11.48
2022-11-17T08:20:34.301Z,12.63
2022-11-17T08:23:01.239Z,11.38
2022-11-17T08:25:28.182Z,12.10
2022-11-17T08:27:55.098Z,11.00
2022-11-17T08:30:22.017Z,12.75
2022-11-17T08:32:49.991Z,11.95
2022-11-17T08:35:16.933Z,12.65
2022-11-17T08:37:43.839Z,11.40
2022-11-17T08:40:10.778Z,10.90
2022-11-17T08:42:37.948Z,11.13
2022-11-17T08:45:04.907Z,11.48
2022-11-17T08:47:31.839Z,11.88
2022-11-17T08:49:58.786Z,12.80
2022-11-17T08:52:25.731Z,11.75
2022-11-17T08:54:52.717Z,11.15
2022-11-17T08:57:19.731Z,11.68
2022-11-17T08:59:46.677Z,11.18
2022-11-17T09:02:13.585Z,11.80
2022-11-17T09:04:40.548Z,10.75
2022-11-17T09:07:07.527Z,12.00
2022-11-17T09:09:34.496Z,11.75
2022-11-17T09:12:01.509Z,10.75
2022-11-17T09:14:28.510Z,10.95
2022-11-17T09:16:55.464Z,11.65
2022-11-17T09:19:22.409Z,11.48
2022-11-17T09:21:51.486Z,10.93
2022-11-17T09:24:18.522Z,11.27
2022-11-17T09:26:45.578Z,10.95
2022-11-17T09:29:12.545Z,10.95
2022-11-17T09:31:39.544Z,12.48
2022-11-17T09:34:06.631Z,12.70
2022-11-17T09:36:33.616Z,11.05
2022-11-17T09:39:00.587Z,10.90
2022-11-17T09:41:27.514Z,11.07
2022-11-17T09:43:54.458Z,11.18
2022-11-17T09:46:21.383Z,12.30
2022-11-17T09:48:48.331Z,12.93
2022-11-17T09:51:15.253Z,11.52
2022-11-17T09:53:42.233Z,11.93
2022-11-17T09:56:09.200Z,10.60
2022-11-17T09:58:36.493Z,12.50
2022-11-17T10:01:03.756Z,10.40
2022-11-17T10:03:30.718Z,11.77
2022-11-17T10:05:57.650Z,12.30
2022-11-17T10:08:24.557Z,12.43
2022-11-17T10:10:51.485Z,10.60
2022-11-17T10:13:18.437Z,11.65
2022-11-17T10:15:45.335Z,12.55
2022-11-17T10:18:12.280Z,14.55
2022-11-17T10:20:39.180Z,12.68
2022-11-17T10:23:06.071Z,13.50
2022-11-17T10:25:32.979Z,13.20
2022-11-17T10:27:59.884Z,12.73
2022-11-17T10:30:26.871Z,13.68
2022-11-17T10:32:53.784Z,11.50
2022-11-17T10:35:20.761Z,12.23
2022-11-17T10:37:47.698Z,13.10
2022-11-17T10:40:23.643Z,12.00
2022-11-17T10:42:58.736Z,11.90
2022-11-17T10:45:25.658Z,14.88
2022-11-17T10:47:52.560Z,12.40
2022-11-17T10:50:19.497Z,12.68
2022-11-17T10:52:46.437Z,12.93
2022-11-17T10:55:13.327Z,12.02
2022-11-17T10:57:40.231Z,11.85
2022-11-17T11:00:07.161Z,13.45
2022-11-17T11:02:34.068Z,14.07
2022-11-17T11:05:00.966Z,12.93
2022-11-17T11:07:28.051Z,11.02
2022-11-17T11:09:55.031Z,12.88
2022-11-17T11:12:21.939Z,13.75
2022-11-17T11:14:48.885Z,13.07
2022-11-17T11:23:01.085Z,14.30
2022-11-17T11:28:20.164Z,13.02
2022-11-17T11:33:37.229Z,14.30
2022-11-17T11:36:04.162Z,14.43
2022-11-17T11:38:31.049Z,14.68
2022-11-17T11:40:58.004Z,13.27
2022-11-17T11:43:25.034Z,14.48
2022-11-17T11:45:51.971Z,15.48
2022-11-17T11:48:18.884Z,14.68
2022-11-17T11:50:45.838Z,14.35
2022-11-17T11:53:12.746Z,17.05
2022-11-17T11:55:39.635Z,15.20
2022-11-17T11:58:06.814Z,15.55
2022-11-17T12:00:33.759Z,12.52
2022-11-17T12:03:00.822Z,12.73
2022-11-17T12:05:27.774Z,12.57
2022-11-17T12:07:54.661Z,14.40
2022-11-17T12:10:21.573Z,14.73
2022-11-17T12:12:49.596Z,14.38
2022-11-17T12:15:16.509Z,13.05
2022-11-17T12:17:43.411Z,14.60
2022-11-17T12:20:11.168Z,14.55
2022-11-17T12:22:38.216Z,12.98
2022-11-17T12:25:05.156Z,13.90
2022-11-17T12:27:32.064Z,13.07
2022-11-17T12:29:58.963Z,14.93
2022-11-17T12:32:25.893Z,13.77
2022-11-17T12:34:52.825Z,12.82
2022-11-17T12:37:19.730Z,13.95
2022-11-17T12:39:46.618Z,14.05
2022-11-17T12:42:13.519Z,15.68
2022-11-17T12:44:42.828Z,14.27
2022-11-17T12:47:09.772Z,13.73
2022-11-17T12:49:36.683Z,13.45
2022-11-17T12:52:03.676Z,15.63
2022-11-17T12:57:15.601Z,14.73
2022-11-17T12:59:42.491Z,13.25
2022-11-17T13:02:09.417Z,13.93
2022-11-17T13:04:36.303Z,12.43
2022-11-17T13:07:03.313Z,13.18
2022-11-17T13:09:30.307Z,15.23
2022-11-17T13:11:57.245Z,14.73
2022-11-17T13:14:24.148Z,12.65
2022-11-17T13:16:51.053Z,12.70
2022-11-17T13:19:17.934Z,12.93
2022-11-17T13:21:44.853Z,13.07
2022-11-17T13:24:12.096Z,12.63
2022-11-17T13:26:39.295Z,11.50
2022-11-17T13:29:06.232Z,12.85
2022-11-17T13:31:33.184Z,13.23
2022-11-17T13:34:00.534Z,13.13
2022-11-17T13:36:27.488Z,13.73
2022-11-17T13:38:54.378Z,11.75
2022-11-17T13:41:21.302Z,10.93
2022-11-17T13:43:48.457Z,16.02
2022-11-17T13:46:15.416Z,13.63
2022-11-17T13:48:42.386Z,13.40
2022-11-17T13:51:09.333Z,12.85
2022-11-17T13:53:36.230Z,15.73
2022-11-17T13:56:04.497Z,13.15
2022-11-17T13:58:31.441Z,12.38
2022-11-17T14:00:58.487Z,12.70
2022-11-17T14:03:25.500Z,14.93
2022-11-17T14:05:52.444Z,14.05
2022-11-17T14:08:19.360Z,16.38
2022-11-17T14:10:46.281Z,12.93
2022-11-17T14:13:13.203Z,13.20
2022-11-17T14:15:40.128Z,12.15
2022-11-17T14:18:07.099Z,13.32
2022-11-17T14:20:34.018Z,13.98
2022-11-17T14:23:00.935Z,12.70
2022-11-17T14:25:27.937Z,13.35
2022-11-17T14:27:54.891Z,12.63
2022-11-17T14:30:21.821Z,12.32
2022-11-17T14:32:48.746Z,12.38
2022-11-17T14:35:15.761Z,13.82
2022-11-17T14:37:42.710Z,13.50
2022-11-17T14:40:09.636Z,13.77
2022-11-17T14:42:36.631Z,12.25
2022-11-17T14:45:03.607Z,14.63
2022-11-17T14:47:30.515Z,13.93
2022-11-17T14:49:57.438Z,14.15
2022-11-17T14:52:24.389Z,13.13
2022-11-17T14:54:51.495Z,13.35
2022-11-17T14:57:18.393Z,13.55
2022-11-17T14:59:45.370Z,12.88
2022-11-17T15:02:12.293Z,20.45
2022-11-17T15:04:55.053Z,15.88
2022-11-17T15:07:22.457Z,13.63
2022-11-17T15:09:49.398Z,12.63
2022-11-17T15:12:16.332Z,16.63
2022-11-17T15:14:43.233Z,13.85
2022-11-17T15:17:14.403Z,14.40
2022-11-17T15:19:41.649Z,12.63
2022-11-17T15:22:08.614Z,13.60
2022-11-17T15:24:35.546Z,15.95
2022-11-17T15:27:02.490Z,13.68
2022-11-17T15:29:29.418Z,13.88
2022-11-17T15:31:56.376Z,14.10
2022-11-17T15:34:23.323Z,14.32
2022-11-17T15:36:50.272Z,15.18
2022-11-17T15:39:18.772Z,13.38
2022-11-17T15:41:46.001Z,13.85
2022-11-17T15:44:13.454Z,15.27
2022-11-17T15:46:45.864Z,14.63
2022-11-17T15:49:14.807Z,15.93
2022-11-17T15:51:42.170Z,14.95
2022-11-17T15:54:09.112Z,13.57
2022-11-17T15:56:36.112Z,14.63
2022-11-17T15:59:03.139Z,14.40
2022-11-17T16:01:30.221Z,14.93
2022-11-17T16:03:57.201Z,15.45
2022-11-17T16:06:24.167Z,14.10
2022-11-17T16:08:51.118Z,15.60
2022-11-17T16:11:19.212Z,14.20
2022-11-17T16:13:46.260Z,18.10
2022-11-17T16:19:06.994Z,15.25
2022-11-17T16:24:17.770Z,15.07
2022-11-17T16:26:44.760Z,15.70
2022-11-17T16:29:11.671Z,15.40
2022-11-17T16:31:38.628Z,14.20
2022-11-17T16:34:05.532Z,14.18
2022-11-17T16:36:36.301Z,14.77
2022-11-17T16:39:03.915Z,14.98
2022-11-17T16:41:30.861Z,13.55
2022-11-17T16:43:57.927Z,14.68
2022-11-17T16:46:24.847Z,14.32
2022-11-17T16:48:51.745Z,13.82
2022-11-17T16:51:18.885Z,13.52
2022-11-17T16:53:45.777Z,15.02
2022-11-17T16:56:12.864Z,14.02
2022-11-17T16:58:39.732Z,13.95
2022-11-17T17:01:12.003Z,13.15
2022-11-17T17:03:39.304Z,12.55
2022-11-17T17:06:06.235Z,13.57
2022-11-17T17:08:33.123Z,14.48
2022-11-17T17:11:00.085Z,16.33
2022-11-17T17:13:27.021Z,13.60
2022-11-17T17:15:53.959Z,15.13
2022-11-17T17:18:20.849Z,16.30
2022-11-17T17:20:47.825Z,15.30
2022-11-17T17:23:14.766Z,14.00
2022-11-17T17:25:41.712Z,12.32
2022-11-17T17:28:08.630Z,14.35
2022-11-17T17:30:38.875Z,13.63
2022-11-17T17:33:05.809Z,12.83
2022-11-17T17:35:32.729Z,13.77
2022-11-17T17:37:59.670Z,14.15
2022-11-17T17:40:26.665Z,14.00
2022-11-17T17:42:53.642Z,13.85
2022-11-17T17:45:20.535Z,14.02
2022-11-17T17:47:47.546Z,13.75
2022-11-17T17:50:14.469Z,14.00
2022-11-17T17:52:41.385Z,13.80
2022-11-17T17:55:08.270Z,13.85
2022-11-17T17:57:35.200Z,13.90
2022-11-17T18:00:02.124Z,14.85
2022-11-17T18:02:29.050Z,13.85
2022-11-17T18:04:55.969Z,15.15
2022-11-17T18:07:22.999Z,15.38
2022-11-17T18:09:49.945Z,14.02
2022-11-17T18:12:16.853Z,13.07
2022-11-17T18:14:43.768Z,14.18
2022-11-17T18:17:10.676Z,14.57
2022-11-17T18:19:37.578Z,14.40
2022-11-17T18:22:04.502Z,15.80
2022-11-17T18:27:16.032Z,14.82
2022-11-17T18:29:42.932Z,15.55
2022-11-17T18:32:09.846Z,14.82
2022-11-17T18:34:36.815Z,15.18
2022-11-17T18:37:04.405Z,14.02
2022-11-17T18:39:31.325Z,17.13
2022-11-17T18:41:58.240Z,18.42
2022-11-17T18:44:25.131Z,15.45
2022-11-17T18:46:52.041Z,16.50
2022-11-17T18:49:19.672Z,15.40
2022-11-17T18:51:46.876Z,16.00
2022-11-17T18:54:13.807Z,17.42
2022-11-17T18:56:40.761Z,16.75
2022-11-17T18:59:07.665Z,16.23
2022-11-17T19:01:34.611Z,17.88
2022-11-17T19:04:01.607Z,16.92
2022-11-17T19:06:28.530Z,18.38
2022-11-17T19:08:55.432Z,16.45
2022-11-17T19:11:22.335Z,16.67
2022-11-17T19:13:49.264Z,18.38
2022-11-17T19:16:16.191Z,17.85
2022-11-17T19:18:43.085Z,17.92
2022-11-17T19:21:10.003Z,17.17
2022-11-17T19:23:36.926Z,15.90
2022-11-17T19:26:03.860Z,17.15
2022-11-17T19:28:30.785Z,17.23
2022-11-17T19:30:57.891Z,16.10
2022-11-17T19:33:24.813Z,16.13
2022-11-17T19:35:51.738Z,18.92
2022-11-17T19:38:18.647Z,17.13
2022-11-17T19:40:45.560Z,16.05
2022-11-17T19:43:12.472Z,17.83
2022-11-17T19:45:39.359Z,17.08
2022-11-17T19:48:07.429Z,15.20
2022-11-17T19:50:35.433Z,16.48
2022-11-17T19:55:48.580Z,17.73
2022-11-17T19:58:15.825Z,21.48
2022-11-17T20:00:50.000Z,21.20
2022-11-17T20:03:17.626Z,17.33
2022-11-17T20:05:58.381Z,18.20
2022-11-17T20:08:25.311Z,18.33
2022-11-17T20:10:58.505Z,16.30
2022-11-17T20:13:28.090Z,17.27
2022-11-17T20:18:38.484Z,18.77
2022-11-17T20:21:05.549Z,18.08
2022-11-17T20:23:34.300Z,16.88
2022-11-17T20:26:11.610Z,16.88
2022-11-17T20:28:38.884Z,21.58
2022-11-17T20:36:52.263Z,15.98
2022-11-17T20:53:36.493Z,17.48
2022-11-17T21:10:10.049Z,16.73
2022-11-17T22:08:02.236Z,17.05
2022-11-17T22:10:32.490Z,18.50
2022-11-17T22:13:19.833Z,17.00
2022-11-17T22:23:50.165Z,16.67
2022-11-17T22:26:17.109Z,17.60
2022-11-17T22:28:43.995Z,16.05
2022-11-17T22:31:10.968Z,16.15
2022-11-17T22:33:37.882Z,16.48
2022-11-17T22:36:04.788Z,18.63
2022-11-17T22:38:31.727Z,16.15
2022-11-17T22:40:58.645Z,16.60
2022-11-17T22:43:25.573Z,14.38
2022-11-17T22:45:52.488Z,16.05
2022-11-17T22:48:19.423Z,15.68
2022-11-17T22:50:46.321Z,20.08
2022-11-17T22:53:13.228Z,16.13
2022-11-17T22:55:40.260Z,16.33
2022-11-17T22:58:07.218Z,15.15
2022-11-17T23:00:34.142Z,16.75
2022-11-17T23:03:01.119Z,17.60
2022-11-17T23:05:28.080Z,17.55
2022-11-17T23:07:54.978Z,15.98
2022-11-17T23:10:21.914Z,16.63
2022-11-17T23:12:48.808Z,17.35
2022-11-17T23:15:15.687Z,17.40
2022-11-17T23:17:42.574Z,17.00
2022-11-17T23:20:09.473Z,16.25
2022-11-17T23:22:36.366Z,17.20
2022-11-17T23:25:03.283Z,16.95
2022-11-17T23:27:30.186Z,15.85
2022-11-17T23:29:57.106Z,15.68
2022-11-17T23:32:23.996Z,18.98
2022-11-17T23:34:50.887Z,16.45
2022-11-17T23:37:17.801Z,14.85
2022-11-17T23:39:44.693Z,16.05
2022-11-17T23:42:11.730Z,16.77
2022-11-17T23:44:38.648Z,17.27
2022-11-17T23:47:05.547Z,17.10
2022-11-17T23:49:32.459Z,16.17
2022-11-17T23:51:59.355Z,17.10
2022-11-17T23:54:26.265Z,15.35
2022-11-17T23:56:53.197Z,16.90
2022-11-17T23:59:20.266Z,15.57
